Time;durP1;ratioP1;P1;durP2;ratioP2;P2;SDS_P1;SDS_P2;PMS_P1;PMS_P2;Temp;Humidity;BMP_temperature;BMP_pressure;BME280_temperature;BME280_humidity;BME280_pressure;Samples;Min_cycle;Max_cycle;Signal;HPM_P1;HPM_P2
2022/06/23 00:00:17;;;;;;;6.18;2.47;;;;;;;;;;4263359;33;20100;-74
2022/06/23 00:02:43;;;;;;;8.30;2.47;;;;;;;;;;4263231;33;20108;-74
2022/06/23 00:35:04;;;;;;;7.07;3.35;;;;;;;;;;4649130;27;20214;-70
2022/06/23 00:37:30;;;;;;;3.87;3.58;;;;;;;;;;4299948;33;20206;-73
2022/06/23 00:40:03;;;;;;;5.12;3.22;;;;;;;;;;4293495;33;20479;-72
2022/06/23 00:42:37;;;;;;;5.18;3.25;;;;;;;;;;4276147;33;20123;-74
2022/06/23 00:45:13;;;;;;;4.05;3.22;;;;;;;;;;4290373;33;20103;-63
2022/06/23 00:47:54;;;;;;;5.30;2.90;;;;;;;;;;4277347;33;20098;-72
2022/06/23 00:50:38;;;;;;;4.55;3.03;;;;;;;;;;4276729;33;20145;-72
2022/06/23 00:53:12;;;;;;;4.18;2.87;;;;;;;;;;4290533;33;20186;-64
2022/06/23 00:55:38;;;;;;;6.78;3.15;;;;;;;;;;4290693;33;20119;-64
2022/06/23 00:58:18;;;;;;;5.75;2.80;;;;;;;;;;4290656;33;20552;-64
2022/06/23 01:00:44;;;;;;;4.25;2.97;;;;;;;;;;4262649;33;20456;-64
2022/06/23 01:03:37;;;;;;;4.28;2.90;;;;;;;;;;4274600;33;20180;-63
2022/06/23 01:06:18;;;;;;;3.97;3.20;;;;;;;;;;4262628;33;20124;-64
2022/06/23 01:08:54;;;;;;;8.20;2.62;;;;;;;;;;4262714;33;20138;-64
2022/06/23 01:11:43;;;;;;;6.85;2.70;;;;;;;;;;4276094;33;20120;-63
2022/06/23 01:14:34;;;;;;;3.70;2.55;;;;;;;;;;4262718;33;20093;-64
2022/06/23 01:17:27;;;;;;;4.22;2.80;;;;;;;;;;4286564;33;20112;-64
2022/06/23 01:19:58;;;;;;;6.37;2.85;;;;;;;;;;4290463;33;20104;-64
2022/06/23 01:22:47;;;;;;;11.50;2.80;;;;;;;;;;4290098;33;20463;-64
2022/06/23 01:25:47;;;;;;;6.12;2.72;;;;;;;;;;4276445;33;20120;-64
2022/06/23 01:28:16;;;;;;;7.82;3.08;;;;;;;;;;4264678;33;20107;-64
2022/06/23 01:31:06;;;;;;;4.12;2.90;;;;;;;;;;4264694;33;20237;-65
2022/06/23 01:33:41;;;;;;;8.65;3.12;;;;;;;;;;4276525;33;20127;-65
2022/06/23 01:36:29;;;;;;;3.00;2.70;;;;;;;;;;4290041;33;20122;-65
2022/06/23 01:39:33;;;;;;;2.97;2.62;;;;;;;;;;4264702;33;20118;-65
2022/06/23 01:42:04;;;;;;;3.78;3.03;;;;;;;;;;4257143;33;20111;-65
2022/06/23 01:44:58;;;;;;;5.80;3.03;;;;;;;;;;4276544;33;20126;-65
2022/06/23 01:47:37;;;;;;;5.30;2.87;;;;;;;;;;4289894;33;20139;-65
2022/06/23 01:50:14;;;;;;;8.45;3.42;;;;;;;;;;4289781;33;20222;-65
2022/06/23 01:52:43;;;;;;;5.28;3.20;;;;;;;;;;4289875;33;20119;-65
2022/06/23 01:55:20;;;;;;;4.18;2.97;;;;;;;;;;4289662;33;20463;-65
2022/06/23 01:57:49;;;;;;;3.90;3.08;;;;;;;;;;4276680;33;20121;-65
2022/06/23 02:00:19;;;;;;;3.70;2.60;;;;;;;;;;4276198;33;20214;-64
2022/06/23 02:03:17;;;;;;;3.97;3.10;;;;;;;;;;4276338;33;20215;-64
2022/06/23 02:05:46;;;;;;;2.83;2.53;;;;;;;;;;4264674;33;20111;-64
2022/06/23 02:08:30;;;;;;;4.20;3.12;;;;;;;;;;4276550;33;20133;-64
2022/06/23 02:11:06;;;;;;;5.93;2.93;;;;;;;;;;4289688;33;20100;-63
2022/06/23 02:13:36;;;;;;;9.77;3.22;;;;;;;;;;4289569;33;20487;-64
2022/06/23 02:16:19;;;;;;;5.07;3.10;;;;;;;;;;4276237;33;20119;-64
2022/06/23 02:19:00;;;;;;;4.57;2.83;;;;;;;;;;4289840;33;20095;-63
2022/06/23 02:21:39;;;;;;;3.42;2.53;;;;;;;;;;4288751;33;20111;-63
2022/06/23 02:24:10;;;;;;;3.87;2.80;;;;;;;;;;4276079;33;20498;-64
2022/06/23 02:27:02;;;;;;;8.50;2.80;;;;;;;;;;4289673;33;20415;-63
2022/06/23 02:30:03;;;;;;;2.85;2.55;;;;;;;;;;4276263;33;20589;-63
2022/06/23 02:32:56;;;;;;;2.78;2.50;;;;;;;;;;4270739;33;20116;-63
2022/06/23 02:35:35;;;;;;;4.50;2.72;;;;;;;;;;4276384;33;20119;-63
2022/06/23 02:38:12;;;;;;;4.32;3.40;;;;;;;;;;4276142;33;20111;-64
2022/06/23 02:41:10;;;;;;;3.65;2.55;;;;;;;;;;4276089;33;20127;-64
2022/06/23 02:43:45;;;;;;;4.37;3.00;;;;;;;;;;4270765;33;20451;-64
2022/06/23 02:46:18;;;;;;;;;;;;;;;;;;4276388;33;20529;-65
2022/06/23 02:49:14;;;;;;;3.70;3.17;;;;;;;;;;4288054;33;20375;-64
2022/06/23 02:51:51;;;;;;;4.40;2.92;;;;;;;;;;4289375;33;20119;-64
2022/06/23 02:54:51;;;;;;;4.72;3.00;;;;;;;;;;4289280;33;20100;-64
2022/06/23 02:57:17;;;;;;;3.37;2.80;;;;;;;;;;4289442;33;20429;-64
2022/06/23 02:59:50;;;;;;;3.67;2.50;;;;;;;;;;4289513;33;20127;-64
2022/06/23 03:02:35;;;;;;;5.22;2.87;;;;;;;;;;4289162;33;20547;-67
2022/06/23 03:05:07;;;;;;;3.15;2.85;;;;;;;;;;4289464;33;20127;-64
2022/06/23 03:07:42;;;;;;;3.45;2.70;;;;;;;;;;4289116;33;20675;-65
2022/06/23 03:10:33;;;;;;;4.55;2.70;;;;;;;;;;4288441;33;20124;-64
2022/06/23 03:13:12;;;;;;;4.32;2.75;;;;;;;;;;4269744;33;20443;-67
2022/06/23 03:15:47;;;;;;;4.20;3.25;;;;;;;;;;4275325;33;20118;-65
2022/06/23 03:18:24;;;;;;;8.73;3.00;;;;;;;;;;4276009;33;20199;-65
2022/06/23 03:21:01;;;;;;;4.45;2.83;;;;;;;;;;4275937;33;20539;-67
2022/06/23 03:23:37;;;;;;;3.80;2.80;;;;;;;;;;4275466;33;20409;-63
2022/06/23 03:26:08;;;;;;;5.20;3.45;;;;;;;;;;4275706;33;20233;-61
2022/06/23 03:28:49;;;;;;;4.95;3.03;;;;;;;;;;4288775;33;20494;-61
2022/06/23 03:31:38;;;;;;;5.22;3.70;;;;;;;;;;4283388;33;20099;-62
2022/06/23 03:34:19;;;;;;;5.47;3.80;;;;;;;;;;4275140;33;20159;-62
2022/06/23 03:36:54;;;;;;;4.80;3.53;;;;;;;;;;4275255;33;20107;-63
2022/06/23 03:42:39;;;;;;;4.20;3.00;;;;;;;;;;4277293;33;20107;-63
2022/06/23 03:45:28;;;;;;;5.32;2.75;;;;;;;;;;4288296;33;20191;-63
2022/06/23 03:48:36;;;;;;;3.65;3.10;;;;;;;;;;4261016;33;20116;-62
2022/06/23 03:51:13;;;;;;;4.37;3.03;;;;;;;;;;4246533;33;20186;-63
2022/06/23 03:54:03;;;;;;;6.57;3.12;;;;;;;;;;4288307;33;20123;-63
2022/06/23 03:56:34;;;;;;;4.32;2.78;;;;;;;;;;4275345;33;20183;-62
2022/06/23 03:59:25;;;;;;;7.40;2.97;;;;;;;;;;4275459;33;20107;-62
2022/06/23 04:02:00;;;;;;;5.12;3.20;;;;;;;;;;4263661;33;20171;-63
2022/06/23 04:04:53;;;;;;;11.35;4.85;;;;;;;;;;4263178;33;20098;-63
2022/06/23 04:07:28;;;;;;;6.30;2.87;;;;;;;;;;4275367;33;20451;-62
2022/06/23 04:10:08;;;;;;;6.40;2.80;;;;;;;;;;4287638;33;20170;-63
2022/06/23 04:12:35;;;;;;;5.80;2.83;;;;;;;;;;4281807;33;20280;-63
2022/06/23 04:15:10;;;;;;;5.07;3.20;;;;;;;;;;4274793;33;20092;-61
2022/06/23 04:17:44;;;;;;;4.37;2.87;;;;;;;;;;4274336;33;20444;-61
2022/06/23 04:20:15;;;;;;;3.90;3.37;;;;;;;;;;4262640;33;20273;-64
2022/06/23 04:22:47;;;;;;;4.10;3.05;;;;;;;;;;4274313;33;20091;-63
2022/06/23 04:25:26;;;;;;;4.15;3.75;;;;;;;;;;4252737;33;20580;-65
2022/06/23 04:27:58;;;;;;;8.70;3.45;;;;;;;;;;4273113;33;20098;-65
2022/06/23 04:30:27;;;;;;;5.85;2.95;;;;;;;;;;4265979;33;20096;-66
2022/06/23 04:32:56;;;;;;;4.47;3.20;;;;;;;;;;4290541;33;20156;-65
2022/06/23 04:35:32;;;;;;;5.35;3.60;;;;;;;;;;4277177;33;20577;-65
2022/06/23 04:38:04;;;;;;;6.12;3.37;;;;;;;;;;4277160;33;20107;-65
2022/06/23 04:40:47;;;;;;;5.15;2.90;;;;;;;;;;4277283;33;20511;-65
2022/06/23 04:43:27;;;;;;;9.35;3.58;;;;;;;;;;4290369;33;20100;-65
2022/06/23 04:45:55;;;;;;;5.10;3.40;;;;;;;;;;4290434;33;20107;-66
2022/06/23 04:48:42;;;;;;;8.30;3.92;;;;;;;;;;4290288;33;20100;-64
2022/06/23 04:51:28;;;;;;;4.87;3.28;;;;;;;;;;4262199;33;20107;-64
2022/06/23 04:54:05;;;;;;;5.57;3.28;;;;;;;;;;4290294;33;20114;-65
2022/06/23 04:56:49;;;;;;;4.47;3.72;;;;;;;;;;4277138;33;20107;-64
2022/06/23 04:59:24;;;;;;;6.55;3.30;;;;;;;;;;4290319;33;20550;-63
2022/06/23 05:01:52;;;;;;;6.95;3.90;;;;;;;;;;4290175;33;20087;-66
2022/06/23 05:04:23;;;;;;;6.45;3.42;;;;;;;;;;4290019;33;20100;-65
2022/06/23 05:06:53;;;;;;;4.45;3.05;;;;;;;;;;4276998;33;20218;-66
2022/06/23 05:09:33;;;;;;;5.62;3.30;;;;;;;;;;4289820;33;20122;-66
2022/06/23 05:12:07;;;;;;;13.00;3.30;;;;;;;;;;4277065;33;20234;-65
2022/06/23 05:14:45;;;;;;;6.25;2.95;;;;;;;;;;4276802;33;20147;-68
2022/06/23 05:17:19;;;;;;;6.82;3.33;;;;;;;;;;4290019;33;20554;-65
2022/06/23 05:19:46;;;;;;;5.80;3.60;;;;;;;;;;4290153;33;20198;-68
2022/06/23 05:22:30;;;;;;;10.15;3.90;;;;;;;;;;4290012;33;20212;-64
2022/06/23 05:24:58;;;;;;;5.55;3.60;;;;;;;;;;4290316;33;20092;-63
2022/06/23 05:27:33;;;;;;;4.20;3.08;;;;;;;;;;4276445;33;20107;-66
2022/06/23 05:30:06;;;;;;;;;;;;;;;;;;4277096;33;20479;-66
2022/06/23 05:32:37;;;;;;;9.65;3.35;;;;;;;;;;4276887;33;20013;-65
2022/06/23 05:35:05;;;;;;;6.00;3.45;;;;;;;;;;4289322;33;20123;-65
2022/06/23 05:37:45;;;;;;;4.18;3.20;;;;;;;;;;4275894;33;20120;-65
2022/06/23 05:40:29;;;;;;;8.02;3.50;;;;;;;;;;4276655;33;20175;-62
2022/06/23 05:42:58;;;;;;;6.53;3.53;;;;;;;;;;4289759;33;20086;-62
2022/06/23 05:45:28;;;;;;;4.22;3.35;;;;;;;;;;4240964;33;20108;-64
2022/06/23 05:47:55;;;;;;;7.12;3.45;;;;;;;;;;4276519;33;20127;-64
2022/06/23 05:50:27;;;;;;;6.60;3.05;;;;;;;;;;4276943;33;20112;-64
2022/06/23 05:53:07;;;;;;;5.80;3.22;;;;;;;;;;4289729;33;20166;-65
2022/06/23 05:55:41;;;;;;;9.40;3.55;;;;;;;;;;4289739;33;20119;-65
2022/06/23 05:58:23;;;;;;;6.95;4.22;;;;;;;;;;4289769;33;20558;-63
2022/06/23 06:00:55;;;;;;;7.80;3.37;;;;;;;;;;4276481;33;20213;-64
2022/06/23 06:03:27;;;;;;;3.22;2.70;;;;;;;;;;4289685;33;20523;-64
2022/06/23 06:05:56;;;;;;;2.72;1.80;;;;;;;;;;4276406;33;20547;-66
2022/06/23 06:09:35;;;;;;;7.07;3.12;;;;;;;;;;4276288;33;20110;-65
2022/06/23 06:11:30;;;;;;;9.88;2.37;;;;;;;;;;4278519;33;20135;-65
2022/06/23 06:13:56;;;;;;;5.35;2.40;;;;;;;;;;4276098;33;20119;-66
2022/06/23 06:16:22;;;;;;;3.60;2.97;;;;;;;;;;4276272;33;20123;-67
2022/06/23 06:18:48;;;;;;;7.22;2.87;;;;;;;;;;4289520;33;20161;-65
2022/06/23 06:21:16;;;;;;;5.43;3.05;;;;;;;;;;4276124;33;20206;-66
2022/06/23 06:23:56;;;;;;;6.07;3.20;;;;;;;;;;4276051;33;20571;-65
2022/06/23 06:26:31;;;;;;;8.00;3.10;;;;;;;;;;4276167;33;20110;-66
2022/06/23 06:29:28;;;;;;;4.97;3.20;;;;;;;;;;4276334;33;20154;-66
2022/06/23 06:32:02;;;;;;;4.07;3.00;;;;;;;;;;4288148;33;20117;-66
2022/06/23 06:35:09;;;;;;;3.22;2.92;;;;;;;;;;4276154;33;20115;-65
2022/06/23 06:37:40;;;;;;;3.65;2.95;;;;;;;;;;4283654;33;20164;-65
2022/06/23 06:40:07;;;;;;;4.18;3.10;;;;;;;;;;4276165;33;20102;-66
2022/06/23 06:42:36;;;;;;;4.93;3.45;;;;;;;;;;4289501;33;20183;-66
2022/06/23 06:45:06;;;;;;;3.78;3.08;;;;;;;;;;4288071;33;20119;-65
2022/06/23 06:47:34;;;;;;;5.87;3.40;;;;;;;;;;4275993;33;20119;-66
2022/06/23 06:50:05;;;;;;;5.30;3.50;;;;;;;;;;4289367;33;20118;-65
2022/06/23 06:52:32;;;;;;;7.05;3.28;;;;;;;;;;4275757;33;20123;-65
2022/06/23 06:55:08;;;;;;;8.10;2.95;;;;;;;;;;4289392;33;20131;-65
2022/06/23 06:57:40;;;;;;;5.40;3.17;;;;;;;;;;4275802;33;20116;-65
2022/06/23 07:00:15;;;;;;;5.78;2.78;;;;;;;;;;4289083;33;20119;-65
2022/06/23 07:02:46;;;;;;;5.07;3.30;;;;;;;;;;4275740;33;20516;-66
2022/06/23 07:05:23;;;;;;;10.93;2.92;;;;;;;;;;4289256;33;20504;-65
2022/06/23 07:07:54;;;;;;;3.30;2.78;;;;;;;;;;4275792;33;20511;-65
2022/06/23 07:10:48;;;;;;;3.67;3.17;;;;;;;;;;4275777;33;20179;-65
2022/06/23 07:13:21;;;;;;;4.57;3.17;;;;;;;;;;4275809;33;20186;-65
2022/06/23 07:15:54;;;;;;;9.20;3.03;;;;;;;;;;4289482;33;20184;-65
2022/06/23 07:18:38;;;;;;;7.12;3.25;;;;;;;;;;4275586;33;20122;-65
2022/06/23 07:21:07;;;;;;;9.90;3.20;;;;;;;;;;4275981;33;20190;-65
2022/06/23 07:23:47;;;;;;;5.18;3.05;;;;;;;;;;4288736;33;20543;-66
2022/06/23 07:26:43;;;;;;;8.45;3.65;;;;;;;;;;4287497;33;20091;-65
2022/06/23 07:29:27;;;;;;;3.47;3.15;;;;;;;;;;4288869;33;20084;-65
2022/06/23 07:31:54;;;;;;;5.35;3.17;;;;;;;;;;4289179;33;20111;-65
2022/06/23 07:34:22;;;;;;;4.07;3.15;;;;;;;;;;4288590;33;20087;-65
2022/06/23 07:37:17;;;;;;;4.82;3.10;;;;;;;;;;4275745;33;20433;-64
2022/06/23 07:39:43;;;;;;;8.40;2.90;;;;;;;;;;4270288;33;20120;-64
2022/06/23 07:42:37;;;;;;;6.20;2.87;;;;;;;;;;4289079;33;20519;-64
2022/06/23 07:45:07;;;;;;;4.28;2.80;;;;;;;;;;4265710;33;20455;-65
2022/06/23 07:47:33;;;;;;;5.28;3.08;;;;;;;;;;4275641;33;20100;-64
2022/06/23 07:50:01;;;;;;;6.00;3.70;;;;;;;;;;4275311;33;20107;-65
2022/06/23 07:52:27;;;;;;;4.37;3.58;;;;;;;;;;4288494;33;20120;-66
2022/06/23 07:54:54;;;;;;;5.82;2.97;;;;;;;;;;4287117;33;20206;-65
2022/06/23 07:57:20;;;;;;;4.93;2.62;;;;;;;;;;4263589;33;20087;-66
2022/06/23 07:59:57;;;;;;;4.78;2.60;;;;;;;;;;4264552;33;20515;-66
2022/06/23 08:02:32;;;;;;;5.25;2.90;;;;;;;;;;4277997;33;20111;-65
2022/06/23 08:05:19;;;;;;;7.65;2.75;;;;;;;;;;4289390;33;20171;-66
2022/06/23 08:07:45;;;;;;;7.72;3.85;;;;;;;;;;4277576;33;20530;-65
2022/06/23 08:10:16;;;;;;;5.22;3.50;;;;;;;;;;4277783;33;20111;-64
2022/06/23 08:13:03;;;;;;;4.90;3.10;;;;;;;;;;4290705;33;20107;-65
2022/06/23 08:18:27;;;;;;;4.93;2.75;;;;;;;;;;4279315;33;20119;-64
2022/06/23 08:21:05;;;;;;;8.25;2.90;;;;;;;;;;4277679;33;20194;-64
2022/06/23 08:23:36;;;;;;;3.45;2.90;;;;;;;;;;4277077;33;20492;-64
2022/06/23 08:26:06;;;;;;;8.15;3.12;;;;;;;;;;4277479;33;20898;-64
2022/06/23 08:28:32;;;;;;;5.05;2.95;;;;;;;;;;4277185;33;20554;-70
2022/06/23 08:30:59;;;;;;;4.70;3.05;;;;;;;;;;4265657;33;20111;-63
2022/06/23 08:33:26;;;;;;;8.13;3.67;;;;;;;;;;4290342;33;20523;-65
2022/06/23 08:35:54;;;;;;;5.47;3.10;;;;;;;;;;4290845;33;20102;-65
2022/06/23 08:38:25;;;;;;;4.15;2.35;;;;;;;;;;4276966;33;20091;-64
2022/06/23 08:40:57;;;;;;;3.17;2.87;;;;;;;;;;4277277;33;20205;-65
2022/06/23 08:43:55;;;;;;;6.97;3.03;;;;;;;;;;4290402;33;20551;-64
2022/06/23 08:46:40;;;;;;;5.12;3.33;;;;;;;;;;4265403;33;20116;-63
2022/06/23 08:49:23;;;;;;;4.72;4.05;;;;;;;;;;4276966;33;20112;-63
2022/06/23 08:52:10;;;;;;;7.70;4.22;;;;;;;;;;4290657;33;20096;-64
2022/06/23 08:54:53;;;;;;;12.30;5.55;;;;;;;;;;4290489;33;20104;-63
2022/06/23 08:57:57;;;;;;;10.55;6.20;;;;;;;;;;4277113;33;20111;-64
2022/06/23 09:00:35;;;;;;;4.75;4.25;;;;;;;;;;4231124;33;20151;-65
2022/06/23 09:03:23;;;;;;;5.62;3.92;;;;;;;;;;4283968;33;20111;-64
2022/06/23 09:06:34;;;;;;;5.18;4.25;;;;;;;;;;4277228;33;20173;-62
2022/06/23 09:09:45;;;;;;;7.80;4.82;;;;;;;;;;4282215;33;20104;-66
2022/06/23 09:12:41;;;;;;;6.43;3.80;;;;;;;;;;4238194;33;20125;-66
2022/06/23 09:15:29;;;;;;;8.32;3.72;;;;;;;;;;4289037;33;20118;-65
2022/06/23 09:18:13;;;;;;;6.32;3.65;;;;;;;;;;4290383;33;20111;-65
2022/06/23 09:21:01;;;;;;;7.75;4.28;;;;;;;;;;4279460;33;20124;-64
2022/06/23 09:23:30;;;;;;;8.85;3.90;;;;;;;;;;4275797;33;20096;-65
2022/06/23 09:26:20;;;;;;;8.20;3.75;;;;;;;;;;4262601;33;20199;-65
2022/06/23 09:28:52;;;;;;;6.07;3.58;;;;;;;;;;4275695;33;20115;-67
2022/06/23 09:31:48;;;;;;;8.20;3.47;;;;;;;;;;4262644;33;20120;-65
2022/06/23 09:34:23;;;;;;;4.60;3.10;;;;;;;;;;4275324;33;20516;-66
2022/06/23 09:37:07;;;;;;;;;;;;;;;;;;4276103;33;20481;-65
2022/06/23 09:40:02;;;;;;;5.93;3.47;;;;;;;;;;4275361;33;19983;-65
2022/06/23 09:42:46;;;;;;;9.88;3.53;;;;;;;;;;4256566;33;20119;-66
2022/06/23 09:45:21;;;;;;;6.22;3.70;;;;;;;;;;4279606;33;20119;-64
2022/06/23 09:48:15;;;;;;;6.32;3.35;;;;;;;;;;4276211;33;20203;-66
2022/06/23 09:50:49;;;;;;;4.68;3.33;;;;;;;;;;4288530;33;20194;-67
2022/06/23 09:53:44;;;;;;;10.30;2.80;;;;;;;;;;4285655;33;20107;-65
2022/06/23 09:56:31;;;;;;;8.05;3.05;;;;;;;;;;4257861;33;20108;-67
2022/06/23 09:59:15;;;;;;;6.72;2.90;;;;;;;;;;4286999;33;20083;-66
2022/06/23 10:01:43;;;;;;;5.28;2.58;;;;;;;;;;4289566;33;20107;-65
2022/06/23 10:04:37;;;;;;;5.90;3.92;;;;;;;;;;4289284;33;20195;-67
2022/06/23 10:07:19;;;;;;;4.22;2.65;;;;;;;;;;4289189;33;20500;-67
2022/06/23 10:10:09;;;;;;;2.53;2.28;;;;;;;;;;4288752;33;20142;-66
2022/06/23 10:12:43;;;;;;;3.87;2.35;;;;;;;;;;4275211;33;20117;-67
2022/06/23 10:15:16;;;;;;;3.30;2.50;;;;;;;;;;4284388;33;20119;-70
2022/06/23 10:18:04;;;;;;;6.53;2.47;;;;;;;;;;4289742;33;20115;-66
2022/06/23 10:20:47;;;;;;;5.10;2.78;;;;;;;;;;4281569;33;20108;-64
2022/06/23 10:23:16;;;;;;;3.28;2.53;;;;;;;;;;4274996;33;20100;-64
2022/06/23 10:26:19;;;;;;;2.97;2.25;;;;;;;;;;4273909;33;20217;-64
2022/06/23 10:29:10;;;;;;;5.97;2.42;;;;;;;;;;4289394;33;20206;-64
2022/06/23 10:31:55;;;;;;;3.50;2.20;;;;;;;;;;4288375;33;20119;-64
2022/06/23 10:34:30;;;;;;;4.77;2.40;;;;;;;;;;4275146;33;20551;-64
2022/06/23 10:37:23;;;;;;;3.33;2.25;;;;;;;;;;4289206;33;20292;-64
2022/06/23 10:40:27;;;;;;;5.07;1.92;;;;;;;;;;4261670;33;20128;-64
2022/06/23 10:43:09;;;;;;;2.33;2.08;;;;;;;;;;4261804;33;20097;-65
2022/06/23 10:46:00;;;;;;;6.78;2.35;;;;;;;;;;4261930;33;20139;-65
2022/06/23 10:48:49;;;;;;;8.18;3.20;;;;;;;;;;4274876;33;20104;-65
2022/06/23 10:51:33;;;;;;;7.80;2.40;;;;;;;;;;4261696;33;20106;-66
2022/06/23 10:54:05;;;;;;;1.73;1.62;;;;;;;;;;4284344;33;20575;-66
2022/06/23 10:56:46;;;;;;;3.80;2.28;;;;;;;;;;4289221;33;20119;-67
2022/06/23 10:59:18;;;;;;;3.42;2.00;;;;;;;;;;4289153;33;20135;-65
2022/06/23 11:02:19;;;;;;;2.20;2.00;;;;;;;;;;4289335;33;20214;-66
2022/06/23 11:05:13;;;;;;;4.15;2.00;;;;;;;;;;4239282;33;20119;-66
2022/06/23 11:07:52;;;;;;;2.20;1.83;;;;;;;;;;4289484;33;20108;-66
2022/06/23 11:10:33;;;;;;;3.80;2.85;;;;;;;;;;4275813;33;20129;-66
2022/06/23 11:13:30;;;;;;;4.95;2.40;;;;;;;;;;4289323;33;20123;-65
2022/06/23 11:16:23;;;;;;;4.78;2.42;;;;;;;;;;4287949;33;20535;-65
2022/06/23 11:19:20;;;;;;;5.32;2.45;;;;;;;;;;4274549;33;20516;-66
2022/06/23 11:21:59;;;;;;;2.53;2.33;;;;;;;;;;4275816;33;20563;-65
2022/06/23 11:24:27;;;;;;;2.70;1.95;;;;;;;;;;4288798;33;20134;-66
2022/06/23 11:27:06;;;;;;;3.35;2.10;;;;;;;;;;4288998;33;20590;-65
2022/06/23 11:29:47;;;;;;;6.40;2.35;;;;;;;;;;4287668;33;20115;-66
2022/06/23 11:32:22;;;;;;;8.15;2.60;;;;;;;;;;4275603;33;20112;-65
2022/06/23 11:35:01;;;;;;;3.53;2.45;;;;;;;;;;4290078;33;20476;-66
2022/06/23 11:37:49;;;;;;;8.20;2.92;;;;;;;;;;4291016;33;20112;-66
2022/06/23 11:40:33;;;;;;;2.90;2.60;;;;;;;;;;4290746;33;20119;-66
2022/06/23 11:43:04;;;;;;;5.85;2.65;;;;;;;;;;4291177;33;20154;-66
2022/06/23 11:45:33;;;;;;;5.53;2.50;;;;;;;;;;4291019;33;20282;-65
2022/06/23 11:48:22;;;;;;;5.70;2.78;;;;;;;;;;4277428;33;20499;-64
2022/06/23 11:51:21;;;;;;;5.25;2.55;;;;;;;;;;4290943;33;20515;-66
2022/06/23 11:54:08;;;;;;;4.18;2.65;;;;;;;;;;4290680;33;20187;-66
2022/06/23 11:57:30;;;;;;;3.90;2.80;;;;;;;;;;4291079;33;20096;-66
2022/06/23 12:00:10;;;;;;;2.67;2.35;;;;;;;;;;4231723;33;20117;-66
2022/06/23 12:02:49;;;;;;;8.55;2.95;;;;;;;;;;4219652;33;20104;-65
2022/06/23 12:05:15;;;;;;;4.68;2.42;;;;;;;;;;4277632;33;20100;-66
2022/06/23 12:07:45;;;;;;;7.40;2.40;;;;;;;;;;4277532;33;20436;-66
2022/06/23 12:10:20;;;;;;;3.53;2.20;;;;;;;;;;4277412;33;20531;-66
2022/06/23 12:12:46;;;;;;;;;;;;;;;;;;4266114;33;20110;-67
2022/06/23 12:15:16;;;;;;;4.90;2.20;;;;;;;;;;4289053;33;20047;-66
2022/06/23 12:17:54;;;;;;;3.47;2.00;;;;;;;;;;4277302;33;20479;-66
2022/06/23 12:20:47;;;;;;;6.75;2.12;;;;;;;;;;4277494;33;20447;-67
2022/06/23 12:23:34;;;;;;;4.45;2.40;;;;;;;;;;4290186;33;20202;-66
2022/06/23 12:26:09;;;;;;;2.78;2.17;;;;;;;;;;4290785;33;20112;-64
2022/06/23 12:28:47;;;;;;;;;;;;;;;;;;4277451;33;20095;-65
2022/06/23 12:31:38;;;;;;;3.62;2.53;;;;;;;;;;4290632;33;19971;-66
2022/06/23 12:34:34;;;;;;;4.03;3.03;;;;;;;;;;4290392;33;20143;-63
2022/06/23 12:37:02;;;;;;;3.28;2.60;;;;;;;;;;4277151;33;20111;-64
2022/06/23 12:39:37;;;;;;;3.87;2.67;;;;;;;;;;4290341;33;20111;-65
2022/06/23 12:42:17;;;;;;;3.67;2.40;;;;;;;;;;4290479;33;20250;-64
2022/06/23 12:45:20;;;;;;;9.02;2.53;;;;;;;;;;4289941;33;20130;-64
2022/06/23 12:47:55;;;;;;;3.97;2.35;;;;;;;;;;4290339;33;20210;-65
2022/06/23 12:50:44;;;;;;;4.45;2.30;;;;;;;;;;4290569;33;20142;-66
2022/06/23 12:53:31;;;;;;;3.70;2.58;;;;;;;;;;4268465;33;20104;-66
2022/06/23 12:56:28;;;;;;;8.23;2.78;;;;;;;;;;4277219;33;20115;-66
2022/06/23 12:58:58;;;;;;;7.78;2.60;;;;;;;;;;4290553;33;20120;-66
2022/06/23 13:01:41;;;;;;;6.62;2.67;;;;;;;;;;4276985;33;20115;-66
2022/06/23 13:04:21;;;;;;;3.67;2.40;;;;;;;;;;4290165;33;20118;-67
2022/06/23 13:07:07;;;;;;;3.90;2.47;;;;;;;;;;4290326;33;20530;-67
2022/06/23 13:09:40;;;;;;;5.62;2.47;;;;;;;;;;4290167;33;20120;-66
2022/06/23 13:12:37;;;;;;;3.25;2.42;;;;;;;;;;4276862;33;20511;-67
2022/06/23 13:15:08;;;;;;;3.62;2.67;;;;;;;;;;4290217;33;20203;-65
2022/06/23 13:17:50;;;;;;;4.10;2.75;;;;;;;;;;4277025;33;20111;-66
2022/06/23 13:20:30;;;;;;;6.12;2.62;;;;;;;;;;4288820;33;20127;-66
2022/06/23 13:23:01;;;;;;;3.15;2.40;;;;;;;;;;4290123;33;20523;-67
2022/06/23 13:25:33;;;;;;;5.60;2.83;;;;;;;;;;4276928;33;20135;-65
2022/06/23 13:28:00;;;;;;;4.28;2.60;;;;;;;;;;4277270;33;20589;-65
2022/06/23 13:30:30;;;;;;;3.80;2.40;;;;;;;;;;4289984;33;20534;-65
2022/06/23 13:33:20;;;;;;;10.82;2.78;;;;;;;;;;4290272;33;20103;-64
2022/06/23 13:35:59;;;;;;;4.05;2.70;;;;;;;;;;4289853;33;20111;-63
2022/06/23 13:39:17;;;;;;;5.40;2.60;;;;;;;;;;4276591;33;20119;-65
2022/06/23 13:41:53;;;;;;;9.55;2.80;;;;;;;;;;4253383;33;20127;-65
2022/06/23 13:44:57;;;;;;;8.07;3.35;;;;;;;;;;4276706;33;20112;-65
2022/06/23 13:48:02;;;;;;;3.45;2.42;;;;;;;;;;4259792;33;20128;-64
2022/06/23 13:50:49;;;;;;;7.32;2.22;;;;;;;;;;4290110;33;20130;-63
2022/06/23 13:53:38;;;;;;;7.85;2.67;;;;;;;;;;4289708;33;20653;-64
2022/06/23 13:56:07;;;;;;;8.25;2.47;;;;;;;;;;4276130;33;20112;-64
2022/06/23 13:58:50;;;;;;;8.40;3.22;;;;;;;;;;4289599;33;20174;-64
2022/06/23 14:01:38;;;;;;;5.45;2.45;;;;;;;;;;4276714;33;20478;-65
2022/06/23 14:04:28;;;;;;;5.55;2.95;;;;;;;;;;4289535;33;20111;-64
2022/06/23 14:07:08;;;;;;;4.10;2.40;;;;;;;;;;4289694;33;20121;-64
2022/06/23 14:09:54;;;;;;;6.43;2.67;;;;;;;;;;4276583;33;20190;-63
2022/06/23 14:12:46;;;;;;;6.60;2.90;;;;;;;;;;4288471;33;20435;-63
2022/06/23 14:15:28;;;;;;;7.90;3.05;;;;;;;;;;4262022;33;20092;-64
2022/06/23 14:17:54;;;;;;;3.17;2.53;;;;;;;;;;4276363;33;20111;-64
2022/06/23 14:20:42;;;;;;;3.22;2.47;;;;;;;;;;4289594;33;20523;-64
2022/06/23 14:23:18;;;;;;;7.43;2.50;;;;;;;;;;4289695;33;20100;-64
2022/06/23 14:25:51;;;;;;;9.57;4.03;;;;;;;;;;4276317;33;20138;-63
2022/06/23 14:28:26;;;;;;;11.93;4.90;;;;;;;;;;4276186;33;20107;-69
2022/06/23 14:31:09;;;;;;;10.48;3.58;;;;;;;;;;4288028;33;20231;-65
2022/06/23 14:33:41;;;;;;;3.47;2.40;;;;;;;;;;4289328;33;20586;-65
2022/06/23 14:36:39;;;;;;;3.15;2.55;;;;;;;;;;4289384;33;20444;-64
2022/06/23 14:39:22;;;;;;;7.03;2.50;;;;;;;;;;4289468;33;20122;-65
2022/06/23 14:42:13;;;;;;;3.78;2.37;;;;;;;;;;4276124;33;20108;-65
2022/06/23 14:44:54;;;;;;;3.15;2.42;;;;;;;;;;4289211;33;20607;-66
2022/06/23 14:47:50;;;;;;;4.07;2.37;;;;;;;;;;4289360;33;20192;-68
2022/06/23 14:50:35;;;;;;;6.80;3.25;;;;;;;;;;4289349;33;20103;-64
2022/06/23 14:53:28;;;;;;;7.78;4.35;;;;;;;;;;4289249;33;20226;-64
2022/06/23 14:56:05;;;;;;;10.63;3.97;;;;;;;;;;4289450;33;20087;-65
2022/06/23 14:58:41;;;;;;;6.20;3.05;;;;;;;;;;4289130;33;20180;-64
2022/06/23 15:01:32;;;;;;;7.62;2.58;;;;;;;;;;4275355;33;20175;-64
2022/06/23 15:04:33;;;;;;;2.50;2.30;;;;;;;;;;4287861;33;20116;-64
2022/06/23 15:07:14;;;;;;;3.97;2.90;;;;;;;;;;4287850;33;20103;-64
2022/06/23 15:09:58;;;;;;;3.22;2.90;;;;;;;;;;4274527;33;20136;-66
2022/06/23 15:12:38;;;;;;;4.32;2.55;;;;;;;;;;4286702;33;20218;-65
2022/06/23 15:15:41;;;;;;;4.60;2.47;;;;;;;;;;4286649;33;20115;-64
2022/06/23 15:18:19;;;;;;;2.92;2.50;;;;;;;;;;4286734;33;20127;-65
2022/06/23 15:21:02;;;;;;;4.18;2.17;;;;;;;;;;4286448;33;20119;-64
2022/06/23 15:23:42;;;;;;;5.57;2.40;;;;;;;;;;4286673;33;20498;-64
2022/06/23 15:26:30;;;;;;;5.55;2.60;;;;;;;;;;4273312;33;20200;-63
2022/06/23 15:29:06;;;;;;;3.92;2.40;;;;;;;;;;4274651;33;20191;-65
2022/06/23 15:31:49;;;;;;;5.03;2.15;;;;;;;;;;4288564;33;20539;-64
2022/06/23 15:34:15;;;;;;;3.83;2.17;;;;;;;;;;4249975;33;20123;-65
2022/06/23 15:37:05;;;;;;;3.95;2.33;;;;;;;;;;4286843;33;20100;-65
2022/06/23 15:39:36;;;;;;;4.35;2.33;;;;;;;;;;4286734;33;20134;-64
2022/06/23 15:42:26;;;;;;;2.40;2.20;;;;;;;;;;4286814;33;20095;-64
2022/06/23 15:45:21;;;;;;;6.45;1.92;;;;;;;;;;4286709;33;20177;-64
2022/06/23 15:47:48;;;;;;;1.77;1.55;;;;;;;;;;4282611;33;20123;-64
2022/06/23 15:50:35;;;;;;;1.80;1.70;;;;;;;;;;4288551;33;20549;-65
2022/06/23 15:53:24;;;;;;;1.92;1.83;;;;;;;;;;4288627;33;20439;-63
2022/06/23 15:56:05;;;;;;;2.30;2.10;;;;;;;;;;4288939;33;20108;-64
2022/06/23 15:58:49;;;;;;;2.90;2.00;;;;;;;;;;4288524;33;20496;-64
2022/06/23 16:01:30;;;;;;;3.75;2.33;;;;;;;;;;4288558;33;20102;-65
2022/06/23 16:03:56;;;;;;;4.15;2.30;;;;;;;;;;4288434;33;20120;-65
2022/06/23 16:06:32;;;;;;;3.80;2.40;;;;;;;;;;4275356;33;20147;-65
2022/06/23 16:09:08;;;;;;;2.10;1.85;;;;;;;;;;4263037;33;20563;-65
2022/06/23 16:11:46;;;;;;;4.03;2.25;;;;;;;;;;4275237;33;20096;-64
2022/06/23 16:14:16;;;;;;;6.90;2.45;;;;;;;;;;4288406;33;20110;-64
2022/06/23 16:16:48;;;;;;;5.30;2.40;;;;;;;;;;4275384;33;20190;-66
2022/06/23 16:19:16;;;;;;;3.55;2.55;;;;;;;;;;4288370;33;20095;-68
2022/06/23 16:21:44;;;;;;;6.68;2.17;;;;;;;;;;4290729;33;20503;-63
2022/06/23 16:24:18;;;;;;;2.90;2.50;;;;;;;;;;4290547;33;20167;-63
2022/06/23 16:27:08;;;;;;;5.62;2.05;;;;;;;;;;4276537;33;20123;-65
2022/06/23 16:29:41;;;;;;;3.87;2.30;;;;;;;;;;4263715;33;20271;-65
2022/06/23 16:32:19;;;;;;;5.72;2.60;;;;;;;;;;4276833;33;20127;-65
2022/06/23 16:34:51;;;;;;;3.10;2.30;;;;;;;;;;4289186;33;20517;-66